createdAt,value
2023-02-22T00:01:49.917Z,7.91
2023-02-22T00:04:54.301Z,7.83
2023-02-22T00:08:05.179Z,7.56
2023-02-22T00:11:09.892Z,7.60
2023-02-22T00:14:12.663Z,7.57
2023-02-22T00:17:18.534Z,7.73
2023-02-22T00:20:31.069Z,7.77
2023-02-22T00:23:33.430Z,7.75
2023-02-22T00:26:40.869Z,7.76
2023-02-22T00:29:53.455Z,7.64
2023-02-22T00:32:59.862Z,7.43
2023-02-22T00:36:06.653Z,7.24
2023-02-22T00:39:12.498Z,7.19
2023-02-22T00:42:18.725Z,7.27
2023-02-22T00:45:26.386Z,7.23
2023-02-22T00:48:31.226Z,7.33
2023-02-22T00:51:57.790Z,7.30
2023-02-22T00:55:02.853Z,7.38
2023-02-22T00:58:06.656Z,7.32
2023-02-22T01:01:13.059Z,7.48
2023-02-22T01:04:18.861Z,7.59
2023-02-22T01:07:27.348Z,7.64
2023-02-22T01:10:34.027Z,7.72
2023-02-22T01:13:36.488Z,7.74
2023-02-22T01:16:40.700Z,7.82
2023-02-22T01:19:53.859Z,7.93
2023-02-22T01:23:07.807Z,8.03
2023-02-22T01:26:10.238Z,8.02
2023-02-22T01:29:25.428Z,8.12
2023-02-22T01:32:33.932Z,8.01
2023-02-22T01:35:46.382Z,8.17
2023-02-22T01:38:50.223Z,8.19
2023-02-22T01:41:54.949Z,8.19
2023-02-22T01:45:39.707Z,8.24
2023-02-22T01:48:54.407Z,8.30
2023-02-22T01:52:07.687Z,8.31
2023-02-22T01:55:19.916Z,8.34
2023-02-22T01:58:37.467Z,8.35
2023-02-22T02:01:53.164Z,8.40
2023-02-22T02:04:59.487Z,8.37
2023-02-22T02:08:21.935Z,8.24
2023-02-22T02:11:27.013Z,8.30
2023-02-22T02:14:40.988Z,8.26
2023-02-22T02:17:53.544Z,8.16
2023-02-22T02:21:18.942Z,8.17
2023-02-22T02:24:35.920Z,8.08
2023-02-22T02:28:01.517Z,8.01
2023-02-22T02:31:32.174Z,7.93
2023-02-22T02:34:56.033Z,7.85
2023-02-22T02:38:13.532Z,7.81
2023-02-22T02:41:41.706Z,7.78
2023-02-22T02:44:51.306Z,7.72
2023-02-22T02:48:06.321Z,7.65
2023-02-22T02:51:21.992Z,7.63
2023-02-22T02:54:31.021Z,7.63
2023-02-22T02:57:34.484Z,7.69
2023-02-22T03:00:47.203Z,7.61
2023-02-22T03:04:29.284Z,7.63
2023-02-22T03:08:00.651Z,7.74
2023-02-22T03:11:15.725Z,7.83
2023-02-22T03:14:42.287Z,7.86
2023-02-22T03:18:19.701Z,7.89
2023-02-22T03:21:31.647Z,8.00
2023-02-22T03:24:44.495Z,7.97
2023-02-22T03:27:54.487Z,8.02
2023-02-22T03:31:12.069Z,8.13
2023-02-22T03:34:29.678Z,8.29
2023-02-22T03:37:42.699Z,8.30
2023-02-22T03:40:52.564Z,8.34
2023-02-22T03:44:10.381Z,8.34
2023-02-22T03:47:41.402Z,8.33
2023-02-22T03:50:47.205Z,8.29
2023-02-22T03:53:52.078Z,8.29
2023-02-22T03:57:03.481Z,8.27
2023-02-22T04:00:13.294Z,8.24
2023-02-22T04:03:16.714Z,8.23
2023-02-22T04:06:35.047Z,8.21
2023-02-22T04:09:44.635Z,8.25
2023-02-22T04:12:56.583Z,8.12
2023-02-22T04:16:04.534Z,7.99
2023-02-22T04:19:07.115Z,7.88
2023-02-22T04:22:17.239Z,7.88
2023-02-22T04:25:24.600Z,7.86
2023-02-22T04:28:33.723Z,7.75
2023-02-22T04:31:53.443Z,7.56
2023-02-22T04:34:57.053Z,7.53
2023-02-22T04:38:04.709Z,7.44
2023-02-22T04:41:09.006Z,7.55
2023-02-22T04:44:23.388Z,7.51
2023-02-22T04:47:28.828Z,7.42
2023-02-22T04:50:31.593Z,7.28
2023-02-22T04:53:39.656Z,7.13
2023-02-22T04:56:59.437Z,7.19
2023-02-22T05:00:02.213Z,7.08
2023-02-22T05:03:11.833Z,7.14
2023-02-22T05:06:22.061Z,7.19
2023-02-22T05:09:35.288Z,7.06
2023-02-22T05:12:46.415Z,7.26
2023-02-22T05:16:11.225Z,7.14
2023-02-22T05:19:13.501Z,7.08
2023-02-22T05:22:18.624Z,7.25
2023-02-22T05:25:24.867Z,7.26
2023-02-22T05:28:29.787Z,7.13
2023-02-22T05:31:32.254Z,6.92
2023-02-22T05:34:57.288Z,6.77
2023-02-22T05:38:07.613Z,6.77
2023-02-22T05:41:14.124Z,6.83
2023-02-22T05:44:25.958Z,6.87
2023-02-22T05:47:32.162Z,7.00
2023-02-22T05:50:43.726Z,6.95
2023-02-22T05:54:03.164Z,7.04
2023-02-22T05:57:14.018Z,7.29
2023-02-22T06:00:27.422Z,7.41
2023-02-22T06:03:38.956Z,7.52
2023-02-22T06:06:42.400Z,7.55
2023-02-22T06:09:53.443Z,7.53
2023-02-22T06:13:00.411Z,7.58
2023-02-22T06:16:12.984Z,7.79
2023-02-22T06:19:22.066Z,7.98
2023-02-22T06:22:27.349Z,8.15
2023-02-22T06:25:35.764Z,8.38
2023-02-22T06:28:41.551Z,8.44
2023-02-22T06:31:48.835Z,8.47
2023-02-22T06:34:55.248Z,8.54
2023-02-22T06:37:57.566Z,8.54
2023-02-22T06:41:10.582Z,8.60
2023-02-22T06:44:14.601Z,8.65
2023-02-22T06:47:25.543Z,8.71
2023-02-22T06:50:35.714Z,8.93
2023-02-22T06:53:43.287Z,9.20
2023-02-22T06:57:00.380Z,9.48
2023-02-22T07:00:09.224Z,9.99
2023-02-22T07:03:17.597Z,10.57
2023-02-22T07:06:37.823Z,11.21
2023-02-22T07:09:40.083Z,11.81
2023-02-22T07:12:56.750Z,12.28
2023-02-22T07:16:06.708Z,12.32
2023-02-22T07:19:17.605Z,12.38
2023-02-22T07:22:26.410Z,12.79
2023-02-22T07:25:35.672Z,12.69
2023-02-22T07:28:43.455Z,13.09
2023-02-22T07:31:50.516Z,12.35
2023-02-22T07:34:55.808Z,12.87
2023-02-22T07:38:21.151Z,13.40
2023-02-22T07:41:35.749Z,13.90
2023-02-22T07:44:50.921Z,13.56
2023-02-22T07:47:55.590Z,12.89
2023-02-22T07:51:07.988Z,11.85
2023-02-22T07:54:15.856Z,12.41
2023-02-22T07:57:22.952Z,12.93
2023-02-22T08:00:34.073Z,13.51
2023-02-22T08:03:38.797Z,13.43
2023-02-22T08:06:52.131Z,13.81
2023-02-22T08:10:02.446Z,13.79
2023-02-22T08:13:11.674Z,13.93
2023-02-22T08:16:26.909Z,14.34
2023-02-22T08:19:32.119Z,14.44
2023-02-22T08:22:46.600Z,14.49
2023-02-22T08:25:53.867Z,14.95
2023-02-22T08:29:09.882Z,15.37
2023-02-22T08:32:16.803Z,14.87
2023-02-22T08:35:36.431Z,15.32
2023-02-22T08:38:51.111Z,15.90
2023-02-22T08:41:59.911Z,15.79
2023-02-22T08:45:08.596Z,14.95
2023-02-22T08:48:15.221Z,14.32
2023-02-22T08:51:20.099Z,13.82
2023-02-22T08:54:31.251Z,13.86
2023-02-22T08:57:44.786Z,13.61
2023-02-22T09:00:52.242Z,13.63
2023-02-22T09:04:01.621Z,13.18
2023-02-22T09:07:06.595Z,13.30
2023-02-22T09:10:26.564Z,12.92
2023-02-22T09:13:42.837Z,13.04
2023-02-22T09:16:56.622Z,12.68
2023-02-22T09:20:09.388Z,12.90
2023-02-22T09:23:23.996Z,12.81
2023-02-22T09:26:30.912Z,12.90
2023-02-22T09:29:33.320Z,12.54
2023-02-22T09:32:47.664Z,12.56
2023-02-22T09:35:50.301Z,12.57
2023-02-22T09:39:00.239Z,12.61
2023-02-22T09:42:25.861Z,12.72
2023-02-22T09:46:08.446Z,12.88
2023-02-22T09:49:18.150Z,12.81
2023-02-22T09:52:42.104Z,12.93
2023-02-22T09:55:57.438Z,13.34
2023-02-22T09:59:09.779Z,13.39
2023-02-22T10:02:31.619Z,13.72
2023-02-22T10:05:40.188Z,14.00
2023-02-22T10:08:46.744Z,13.90
2023-02-22T10:12:22.893Z,13.68
2023-02-22T10:15:48.084Z,13.70
2023-02-22T10:19:18.073Z,13.73
2023-02-22T10:22:56.057Z,13.69
2023-02-22T10:26:25.660Z,13.69
2023-02-22T10:29:36.632Z,13.59
2023-02-22T10:33:06.597Z,13.49
2023-02-22T10:36:19.672Z,13.35
2023-02-22T10:39:38.923Z,13.38
2023-02-22T10:42:50.807Z,13.19
2023-02-22T10:46:02.580Z,13.38
2023-02-22T10:49:15.560Z,13.20
2023-02-22T10:52:30.245Z,13.18
2023-02-22T10:55:34.712Z,13.29
2023-02-22T10:58:54.879Z,13.59
2023-02-22T11:02:31.752Z,13.76
2023-02-22T11:05:40.918Z,13.84
2023-02-22T11:08:53.428Z,13.91
2023-02-22T11:12:24.428Z,13.78
2023-02-22T11:15:31.196Z,13.98
2023-02-22T11:18:38.125Z,13.85
2023-02-22T11:21:46.546Z,13.85
2023-02-22T11:25:25.136Z,13.92
2023-02-22T11:28:39.318Z,14.05
2023-02-22T11:31:52.715Z,13.89
2023-02-22T11:35:20.840Z,13.09
2023-02-22T11:38:30.553Z,13.10
2023-02-22T11:41:35.748Z,13.25
2023-02-22T11:44:49.157Z,13.09
2023-02-22T11:48:00.089Z,13.07
2023-02-22T11:51:43.138Z,13.10
2023-02-22T11:55:04.330Z,13.01
2023-02-22T11:58:26.578Z,13.12
2023-02-22T12:01:37.651Z,13.12
2023-02-22T12:05:00.594Z,13.09
2023-02-22T12:08:55.253Z,13.21
2023-02-22T12:12:21.247Z,13.35
2023-02-22T12:15:52.435Z,13.46
2023-02-22T12:19:18.874Z,13.44
2023-02-22T12:22:27.763Z,13.58
2023-02-22T12:25:45.772Z,13.63
2023-02-22T12:28:54.828Z,13.59
2023-02-22T12:32:17.541Z,13.53
2023-02-22T12:35:34.995Z,13.54
2023-02-22T12:38:48.750Z,13.45
2023-02-22T12:41:57.378Z,13.50
2023-02-22T12:45:16.951Z,13.65
2023-02-22T12:48:32.216Z,13.74
2023-02-22T12:52:20.609Z,13.84
2023-02-22T12:55:35.938Z,13.94
2023-02-22T12:59:00.643Z,13.98
2023-02-22T13:02:21.552Z,14.16
2023-02-22T13:05:32.818Z,14.26
2023-02-22T13:09:02.022Z,13.93
2023-02-22T13:12:32.195Z,13.76
2023-02-22T13:16:16.043Z,13.70
2023-02-22T13:19:42.925Z,13.67
2023-02-22T13:23:07.693Z,13.59
2023-02-22T13:26:26.953Z,13.40
2023-02-22T13:29:46.848Z,13.36
2023-02-22T13:32:59.023Z,13.48
2023-02-22T13:36:21.748Z,13.38
2023-02-22T13:40:01.339Z,13.50
2023-02-22T13:43:35.076Z,13.42
2023-02-22T13:47:09.913Z,13.51
2023-02-22T13:50:43.123Z,13.44
2023-02-22T13:53:55.573Z,13.27
2023-02-22T13:57:00.720Z,13.24
2023-02-22T14:00:15.019Z,13.39
2023-02-22T14:03:36.568Z,13.43
2023-02-22T14:06:45.889Z,13.28
2023-02-22T14:09:52.411Z,13.40
2023-02-22T14:13:07.336Z,13.39
2023-02-22T14:16:39.313Z,13.37
2023-02-22T14:19:46.344Z,13.18
2023-02-22T14:22:50.948Z,13.17
2023-02-22T14:25:58.513Z,13.02
2023-02-22T14:29:15.562Z,12.88
2023-02-22T14:32:40.015Z,12.85
2023-02-22T14:35:52.602Z,12.95
2023-02-22T14:39:02.973Z,12.74
2023-02-22T14:42:31.481Z,12.70
2023-02-22T14:45:43.388Z,12.53
2023-02-22T14:48:55.384Z,12.67
2023-02-22T14:52:08.683Z,12.77
2023-02-22T14:55:36.233Z,12.72
2023-02-22T14:58:49.750Z,12.83
2023-02-22T15:02:11.794Z,12.72
2023-02-22T15:05:19.622Z,12.68
2023-02-22T15:08:44.549Z,12.72
2023-02-22T15:11:55.859Z,12.70
2023-02-22T15:15:31.992Z,12.65
2023-02-22T15:18:50.306Z,12.72
2023-02-22T15:22:01.384Z,12.65
2023-02-22T15:25:30.891Z,12.46
2023-02-22T15:28:51.403Z,12.41
2023-02-22T15:32:03.491Z,12.28
2023-02-22T15:35:34.016Z,12.18
2023-02-22T15:38:39.101Z,12.05
2023-02-22T15:41:46.465Z,12.06
2023-02-22T15:44:58.606Z,12.15
2023-02-22T15:48:02.125Z,12.14
2023-02-22T15:51:22.728Z,11.94
2023-02-22T15:54:32.890Z,11.77
2023-02-22T15:57:39.345Z,11.73
2023-02-22T16:01:00.158Z,11.66
2023-02-22T16:04:06.821Z,11.77
2023-02-22T16:07:18.292Z,11.83
2023-02-22T16:10:50.622Z,11.68
2023-02-22T16:14:09.512Z,11.45
2023-02-22T16:17:30.812Z,11.38
2023-02-22T16:20:42.029Z,11.67
2023-02-22T16:23:49.756Z,11.60
2023-02-22T16:27:22.047Z,11.69
2023-02-22T16:31:05.025Z,11.65
2023-02-22T16:34:15.177Z,11.63
2023-02-22T16:37:23.954Z,11.59
2023-02-22T16:40:44.568Z,11.55
2023-02-22T16:43:52.839Z,11.40
2023-02-22T16:47:03.029Z,11.42
2023-02-22T16:50:10.062Z,11.28
2023-02-22T16:53:13.550Z,11.27
2023-02-22T16:56:20.319Z,11.26
2023-02-22T16:59:39.583Z,11.39
2023-02-22T17:03:02.430Z,11.36
2023-02-22T17:06:08.016Z,11.12
2023-02-22T17:09:19.795Z,11.04
2023-02-22T17:12:24.803Z,10.92
2023-02-22T17:15:34.941Z,10.91
2023-02-22T17:18:48.188Z,10.79
2023-02-22T17:21:57.852Z,10.82
2023-02-22T17:25:22.573Z,10.66
2023-02-22T17:28:28.046Z,10.74
2023-02-22T17:31:33.298Z,10.71
2023-02-22T17:34:39.659Z,10.56
2023-02-22T17:37:49.483Z,10.38
2023-02-22T17:41:24.581Z,10.06
2023-02-22T17:44:30.251Z,9.95
2023-02-22T17:47:44.130Z,9.78
2023-02-22T17:50:52.125Z,9.71
2023-02-22T17:53:59.034Z,9.56
2023-02-22T17:57:06.329Z,9.53
2023-02-22T18:00:12.738Z,9.52
2023-02-22T18:03:25.843Z,9.59
2023-02-22T18:06:33.857Z,9.47
2023-02-22T18:09:41.041Z,9.37
2023-02-22T18:12:44.872Z,9.44
2023-02-22T18:15:47.396Z,9.32
2023-02-22T18:18:52.687Z,9.32
2023-02-22T18:22:01.375Z,9.27
2023-02-22T18:25:09.139Z,9.32
2023-02-22T18:28:11.364Z,9.13
2023-02-22T18:31:21.793Z,9.16
2023-02-22T18:34:30.297Z,9.14
2023-02-22T18:37:35.185Z,9.30
2023-02-22T18:40:39.058Z,9.01
2023-02-22T18:43:55.498Z,8.76
2023-02-22T18:47:03.711Z,8.60
2023-02-22T18:50:15.308Z,8.67
2023-02-22T18:53:35.426Z,8.53
2023-02-22T18:56:40.695Z,8.45
2023-02-22T18:59:47.868Z,8.28
2023-02-22T19:02:53.738Z,7.97
2023-02-22T19:06:01.309Z,8.07
2023-02-22T19:09:09.454Z,8.09
2023-02-22T19:12:17.559Z,8.16
2023-02-22T19:15:28.426Z,8.31
2023-02-22T19:18:36.130Z,8.47
2023-02-22T19:21:54.723Z,8.51
2023-02-22T19:24:56.992Z,8.57
2023-02-22T19:28:06.656Z,8.59
2023-02-22T19:31:20.940Z,8.57
2023-02-22T19:34:24.865Z,8.60
2023-02-22T19:37:29.069Z,8.63
2023-02-22T19:40:46.602Z,8.63
2023-02-22T19:44:00.929Z,8.60
2023-02-22T19:47:23.325Z,8.53
2023-02-22T19:50:28.541Z,8.57
2023-02-22T19:53:46.235Z,8.53
2023-02-22T19:57:09.081Z,8.53
2023-02-22T20:00:23.685Z,8.54
2023-02-22T20:03:30.652Z,8.51
2023-02-22T20:06:45.188Z,8.48
2023-02-22T20:09:50.332Z,8.49
2023-02-22T20:12:58.909Z,8.46
2023-02-22T20:16:04.325Z,8.48
2023-02-22T20:19:11.739Z,8.43
2023-02-22T20:22:21.325Z,8.42
2023-02-22T20:25:29.412Z,8.34
2023-02-22T20:28:37.003Z,8.21
2023-02-22T20:31:49.293Z,8.18
2023-02-22T20:35:02.626Z,8.21
2023-02-22T20:38:10.132Z,8.13
2023-02-22T20:41:29.301Z,8.20
2023-02-22T20:44:34.970Z,8.17
2023-02-22T20:47:40.765Z,8.19
2023-02-22T20:50:56.483Z,8.13
2023-02-22T20:54:00.051Z,8.21
2023-02-22T20:57:12.731Z,8.11
2023-02-22T21:00:23.896Z,8.11
2023-02-22T21:03:27.388Z,8.20
2023-02-22T21:06:38.708Z,8.12
2023-02-22T21:09:43.957Z,7.98
2023-02-22T21:13:17.297Z,8.03
2023-02-22T21:16:31.484Z,8.02
2023-02-22T21:19:40.845Z,8.06
2023-02-22T21:22:51.918Z,8.11
2023-02-22T21:25:59.934Z,8.12
2023-02-22T21:29:11.916Z,8.13
2023-02-22T21:32:22.270Z,8.05
2023-02-22T21:35:27.229Z,8.02
2023-02-22T21:38:34.385Z,8.01
2023-02-22T21:41:39.140Z,8.08
2023-02-22T21:44:46.911Z,8.04
2023-02-22T21:48:00.879Z,8.09
2023-02-22T21:51:20.507Z,8.15
2023-02-22T21:54:26.139Z,7.96
2023-02-22T21:57:31.833Z,8.00
2023-02-22T22:00:42.750Z,7.93
2023-02-22T22:03:52.938Z,7.92
2023-02-22T22:07:03.422Z,7.92
2023-02-22T22:10:10.678Z,7.96
2023-02-22T22:13:25.163Z,7.83
2023-02-22T22:16:34.731Z,7.95
2023-02-22T22:19:51.210Z,7.89
2023-02-22T22:22:55.054Z,7.89
2023-02-22T22:26:12.786Z,7.85
2023-02-22T22:29:18.469Z,7.82
2023-02-22T22:32:25.233Z,7.83
2023-02-22T22:35:30.209Z,7.77
2023-02-22T22:38:33.561Z,7.63
2023-02-22T22:41:45.911Z,7.62
2023-02-22T22:44:50.546Z,7.66
2023-02-22T22:48:03.148Z,7.68
2023-02-22T22:51:16.388Z,7.69
2023-02-22T22:54:27.001Z,7.66
2023-02-22T22:57:38.196Z,7.59
2023-02-22T23:00:45.701Z,7.65
2023-02-22T23:04:04.378Z,7.55
2023-02-22T23:07:09.638Z,7.53
2023-02-22T23:10:17.245Z,7.55
2023-02-22T23:13:21.171Z,7.49
2023-02-22T23:16:42.542Z,7.48
2023-02-22T23:19:45.394Z,7.38
2023-02-22T23:22:48.795Z,7.28
2023-02-22T23:26:01.591Z,7.27
2023-02-22T23:29:05.494Z,7.24
2023-02-22T23:32:33.031Z,7.16
2023-02-22T23:35:38.191Z,7.12
2023-02-22T23:38:45.237Z,7.08
2023-02-22T23:41:53.820Z,7.12
2023-02-22T23:45:14.423Z,6.99
2023-02-22T23:48:24.990Z,7.01
2023-02-22T23:51:43.701Z,6.95
2023-02-22T23:54:54.330Z,6.97
2023-02-22T23:58:03.488Z,6.99
